createdAt,value
2023-05-14T00:01:12.883Z,9.50
2023-05-14T00:03:42.582Z,10.30
2023-05-14T00:06:11.262Z,7.57
2023-05-14T00:08:39.510Z,9.00
2023-05-14T00:11:09.030Z,9.40
2023-05-14T00:13:37.623Z,8.43
2023-05-14T00:16:06.516Z,10.57
2023-05-14T00:18:34.926Z,9.67
2023-05-14T00:21:04.815Z,12.30
2023-05-14T00:23:33.097Z,10.87
2023-05-14T00:26:01.418Z,28.20
2023-05-14T00:28:29.733Z,8.30
2023-05-14T00:30:58.043Z,9.63
2023-05-14T00:33:26.337Z,9.00
2023-05-14T00:35:54.816Z,15.37
2023-05-14T00:38:27.698Z,11.33
2023-05-14T00:40:56.091Z,8.37
2023-05-14T00:43:25.258Z,10.87
2023-05-14T00:45:54.934Z,10.47
2023-05-14T00:48:24.318Z,13.80
2023-05-14T00:50:53.054Z,10.57
2023-05-14T00:53:22.141Z,9.10
2023-05-14T00:55:52.074Z,11.57
2023-05-14T00:58:21.028Z,15.77
2023-05-14T01:00:49.408Z,10.37
2023-05-14T01:03:17.854Z,10.57
2023-05-14T01:05:56.406Z,18.83
2023-05-14T01:08:32.924Z,13.40
2023-05-14T01:11:07.937Z,16.20
2023-05-14T01:13:46.456Z,18.93
2023-05-14T01:16:17.107Z,23.40
2023-05-14T01:18:47.735Z,18.70
2023-05-14T01:21:37.200Z,22.40
2023-05-14T01:24:06.147Z,16.30
2023-05-14T01:26:34.670Z,19.23
2023-05-14T01:29:09.525Z,18.33
2023-05-14T01:31:40.995Z,18.97
2023-05-14T01:34:12.595Z,14.13
2023-05-14T01:36:43.205Z,16.90
2023-05-14T01:39:13.109Z,17.80
2023-05-14T01:41:42.929Z,15.40
2023-05-14T01:44:11.664Z,18.07
2023-05-14T01:46:40.241Z,19.53
2023-05-14T01:49:08.680Z,21.80
2023-05-14T01:51:37.873Z,19.43
2023-05-14T01:54:07.628Z,20.10
2023-05-14T01:56:35.926Z,23.00
2023-05-14T01:59:04.260Z,22.47
2023-05-14T02:01:33.950Z,18.40
2023-05-14T02:04:02.532Z,21.40
2023-05-14T02:06:31.687Z,25.03
2023-05-14T02:09:00.172Z,22.40
2023-05-14T02:11:30.595Z,22.10
2023-05-14T02:13:58.924Z,22.30
2023-05-14T02:16:27.476Z,23.03
2023-05-14T02:18:55.961Z,24.97
2023-05-14T02:21:24.419Z,29.13
2023-05-14T02:23:52.811Z,30.10
2023-05-14T02:26:21.495Z,27.23
2023-05-14T02:28:51.279Z,28.43
2023-05-14T02:31:20.364Z,27.43
2023-05-14T02:33:48.762Z,25.43
2023-05-14T02:36:17.103Z,26.77
2023-05-14T02:38:46.054Z,28.63
2023-05-14T02:41:14.326Z,30.00
2023-05-14T02:43:42.627Z,29.57
2023-05-14T02:46:12.397Z,30.07
2023-05-14T02:48:40.956Z,26.87
2023-05-14T02:51:09.580Z,24.10
2023-05-14T02:53:37.887Z,27.43
2023-05-14T02:56:06.740Z,32.20
2023-05-14T02:58:35.135Z,22.20
2023-05-14T03:01:03.633Z,19.03
2023-05-14T03:03:34.144Z,21.93
2023-05-14T03:06:03.080Z,24.13
2023-05-14T03:08:31.461Z,24.27
2023-05-14T03:10:59.802Z,23.03
2023-05-14T03:13:28.113Z,19.40
2023-05-14T03:15:57.052Z,20.30
2023-05-14T03:18:25.496Z,21.93
2023-05-14T03:20:55.327Z,22.27
2023-05-14T03:23:23.701Z,22.77
2023-05-14T03:25:53.664Z,24.47
2023-05-14T03:28:22.015Z,20.60
2023-05-14T03:30:50.450Z,23.53
2023-05-14T03:33:18.888Z,24.47
2023-05-14T03:35:47.182Z,20.27
2023-05-14T03:38:16.932Z,27.43
2023-05-14T03:40:48.498Z,22.00
2023-05-14T03:43:17.454Z,27.30
2023-05-14T03:45:46.194Z,28.47
2023-05-14T03:48:14.637Z,22.90
2023-05-14T03:50:43.391Z,24.47
2023-05-14T03:53:11.813Z,24.83
2023-05-14T03:55:41.542Z,27.53
2023-05-14T03:58:14.316Z,26.33
2023-05-14T04:00:43.192Z,24.10
2023-05-14T04:03:12.949Z,28.40
2023-05-14T04:05:41.392Z,27.67
2023-05-14T04:08:09.742Z,27.67
2023-05-14T04:10:38.139Z,25.77
2023-05-14T04:13:07.796Z,25.27
2023-05-14T04:15:39.388Z,21.57
2023-05-14T04:18:07.927Z,21.43
2023-05-14T04:20:36.946Z,22.20
2023-05-14T04:23:05.437Z,17.67
2023-05-14T04:25:33.717Z,15.30
2023-05-14T04:28:02.023Z,17.70
2023-05-14T04:30:31.738Z,15.77
2023-05-14T04:33:00.056Z,17.10
2023-05-14T04:35:28.430Z,18.17
2023-05-14T04:37:56.710Z,17.17
2023-05-14T04:40:25.181Z,17.00
2023-05-14T04:42:53.665Z,15.97
2023-05-14T04:45:22.146Z,17.37
2023-05-14T04:47:52.202Z,15.30
2023-05-14T04:50:20.688Z,15.57
2023-05-14T04:52:49.077Z,17.60
2023-05-14T04:55:17.476Z,15.30
2023-05-14T04:57:45.820Z,15.53
2023-05-14T05:00:14.993Z,13.83
2023-05-14T05:02:43.345Z,20.43
2023-05-14T05:05:13.182Z,14.87
2023-05-14T05:07:41.514Z,12.27
2023-05-14T05:10:10.607Z,12.53
2023-05-14T05:12:38.957Z,11.20
2023-05-14T05:15:09.510Z,10.67
2023-05-14T05:17:38.127Z,12.30
2023-05-14T05:20:09.718Z,11.17
2023-05-14T05:22:39.405Z,10.80
2023-05-14T05:25:09.183Z,10.03
2023-05-14T05:27:37.540Z,11.53
2023-05-14T05:30:07.417Z,11.50
2023-05-14T05:32:36.238Z,12.70
2023-05-14T05:35:05.088Z,13.00
2023-05-14T05:37:33.449Z,11.03
2023-05-14T05:40:04.443Z,11.70
2023-05-14T05:42:32.760Z,12.50
2023-05-14T05:45:01.071Z,11.07
2023-05-14T05:47:30.148Z,10.50
2023-05-14T05:49:58.491Z,11.17
2023-05-14T05:52:27.010Z,12.33
2023-05-14T05:54:55.364Z,11.90
2023-05-14T05:57:27.193Z,10.43
2023-05-14T05:59:55.601Z,10.90
2023-05-14T06:02:25.127Z,11.17
2023-05-14T06:04:53.848Z,12.10
2023-05-14T06:07:22.170Z,10.33
2023-05-14T06:09:50.523Z,11.20
2023-05-14T06:12:18.795Z,12.70
2023-05-14T06:14:48.438Z,10.77
2023-05-14T06:17:16.789Z,12.80
2023-05-14T06:19:45.202Z,12.90
2023-05-14T06:22:14.800Z,10.13
2023-05-14T06:24:43.089Z,10.03
2023-05-14T06:27:11.868Z,8.90
2023-05-14T06:29:40.431Z,9.83
2023-05-14T06:32:10.571Z,8.60
2023-05-14T06:34:38.976Z,11.23
2023-05-14T06:37:07.309Z,11.60
2023-05-14T06:39:35.637Z,13.80
2023-05-14T06:42:04.343Z,11.50
2023-05-14T06:44:32.874Z,8.70
2023-05-14T06:47:01.449Z,8.30
2023-05-14T06:49:31.112Z,7.93
2023-05-14T06:51:59.383Z,8.70
2023-05-14T06:54:27.706Z,8.87
2023-05-14T06:56:55.977Z,10.40
2023-05-14T06:59:24.488Z,9.83
2023-05-14T07:01:53.092Z,7.97
2023-05-14T07:04:21.588Z,9.00
2023-05-14T07:06:51.366Z,7.77
2023-05-14T07:09:19.976Z,7.63
2023-05-14T07:11:48.275Z,7.93
2023-05-14T07:14:16.609Z,8.53
2023-05-14T07:16:46.942Z,8.47
2023-05-14T07:19:15.494Z,9.07
2023-05-14T07:21:43.951Z,13.73
2023-05-14T07:24:13.673Z,7.90
2023-05-14T07:26:42.046Z,6.27
2023-05-14T07:29:10.437Z,7.57
2023-05-14T07:31:38.884Z,8.90
2023-05-14T07:34:08.575Z,7.93
2023-05-14T07:36:36.889Z,7.30
2023-05-14T07:39:05.275Z,6.93
2023-05-14T07:41:35.086Z,7.60
2023-05-14T07:44:03.529Z,7.07
2023-05-14T07:46:31.972Z,5.63
2023-05-14T07:49:00.486Z,5.70
2023-05-14T07:51:29.313Z,7.43
2023-05-14T07:53:57.660Z,5.30
2023-05-14T07:56:26.121Z,5.73
2023-05-14T07:58:56.568Z,5.00
2023-05-14T08:01:25.202Z,4.83
2023-05-14T08:03:53.768Z,5.33
2023-05-14T08:06:22.873Z,7.40
2023-05-14T08:08:51.184Z,4.97
2023-05-14T08:11:19.503Z,4.93
2023-05-14T08:13:47.869Z,6.27
2023-05-14T08:16:17.589Z,5.20
2023-05-14T08:18:46.041Z,5.00
2023-05-14T08:21:14.370Z,4.93
2023-05-14T08:23:42.747Z,8.93
2023-05-14T08:26:11.163Z,4.77
2023-05-14T08:28:39.455Z,4.77
2023-05-14T08:31:07.803Z,4.53
2023-05-14T08:33:37.490Z,5.10
2023-05-14T08:36:07.271Z,4.17
2023-05-14T08:38:35.623Z,5.60
2023-05-14T08:41:07.326Z,4.90
2023-05-14T08:43:45.223Z,5.87
2023-05-14T08:46:15.428Z,3.93
2023-05-14T08:48:53.032Z,6.10
2023-05-14T08:51:21.419Z,4.60
2023-05-14T08:53:49.821Z,3.83
2023-05-14T08:56:19.934Z,5.73
2023-05-14T08:58:48.378Z,5.67
2023-05-14T09:01:16.718Z,3.50
2023-05-14T09:03:47.010Z,4.10
2023-05-14T09:06:15.618Z,4.33
2023-05-14T09:08:44.076Z,3.07
2023-05-14T09:11:12.678Z,5.20
2023-05-14T09:13:41.091Z,6.23
2023-05-14T09:16:09.456Z,5.43
2023-05-14T09:18:38.174Z,3.83
2023-05-14T09:21:09.814Z,8.43
2023-05-14T09:23:43.178Z,2.73
2023-05-14T09:26:11.554Z,3.70
2023-05-14T09:28:42.545Z,3.40
2023-05-14T09:31:12.224Z,5.37
2023-05-14T09:33:41.302Z,3.67
2023-05-14T09:36:11.096Z,6.20
2023-05-14T09:38:39.441Z,4.37
2023-05-14T09:41:07.758Z,6.30
2023-05-14T09:43:36.091Z,4.00
2023-05-14T09:46:04.459Z,4.50
2023-05-14T09:48:32.779Z,4.67
2023-05-14T09:51:02.757Z,8.77
2023-05-14T09:53:34.347Z,5.43
2023-05-14T09:56:02.738Z,5.30
2023-05-14T09:58:31.295Z,10.23
2023-05-14T10:00:59.820Z,8.50
2023-05-14T10:03:29.679Z,5.07
2023-05-14T10:06:03.266Z,6.93
2023-05-14T10:08:36.766Z,6.33
2023-05-14T10:11:09.462Z,10.90
2023-05-14T10:13:40.981Z,6.50
2023-05-14T10:16:14.976Z,6.20
2023-05-14T10:18:48.643Z,5.43
2023-05-14T10:21:19.544Z,5.90
2023-05-14T10:23:50.304Z,7.83
2023-05-14T10:26:18.893Z,17.23
2023-05-14T10:28:47.485Z,6.97
2023-05-14T10:31:15.900Z,8.50
2023-05-14T10:33:51.874Z,6.50
2023-05-14T10:36:22.271Z,6.23
2023-05-14T10:38:57.962Z,7.50
2023-05-14T10:41:26.412Z,5.90
2023-05-14T10:43:54.820Z,14.47
2023-05-14T10:46:23.164Z,18.83
2023-05-14T10:48:51.899Z,11.20
2023-05-14T10:51:22.990Z,11.53
2023-05-14T10:53:53.607Z,9.10
2023-05-14T10:56:22.317Z,8.73
2023-05-14T10:58:51.623Z,9.63
2023-05-14T11:01:20.040Z,10.90
2023-05-14T11:03:48.595Z,8.30
2023-05-14T11:06:17.358Z,7.23
2023-05-14T11:08:46.620Z,8.40
2023-05-14T11:11:19.222Z,7.80
2023-05-14T11:13:47.745Z,12.27
2023-05-14T11:16:23.475Z,6.50
2023-05-14T11:19:03.516Z,18.87
2023-05-14T11:21:32.582Z,12.70
2023-05-14T11:24:01.578Z,18.00
2023-05-14T11:26:33.165Z,10.93
2023-05-14T11:29:01.660Z,8.47
2023-05-14T11:31:30.105Z,5.00
2023-05-14T11:33:58.466Z,8.33
2023-05-14T11:36:26.786Z,5.00
2023-05-14T11:38:55.108Z,7.03
2023-05-14T11:41:23.571Z,5.00
2023-05-14T11:43:53.359Z,7.63
2023-05-14T11:46:21.930Z,5.63
2023-05-14T11:48:50.371Z,7.20
2023-05-14T11:51:18.672Z,4.97
2023-05-14T11:53:47.969Z,6.77
2023-05-14T11:56:16.458Z,6.63
2023-05-14T11:58:49.696Z,5.20
2023-05-14T12:01:19.553Z,4.63
2023-05-14T12:03:48.133Z,4.10
2023-05-14T12:06:16.558Z,4.60
2023-05-14T12:08:44.863Z,4.80
2023-05-14T12:11:13.158Z,4.27
2023-05-14T12:13:41.708Z,5.20
2023-05-14T12:16:10.524Z,3.33
2023-05-14T12:18:40.356Z,3.57
2023-05-14T12:21:09.155Z,3.00
2023-05-14T12:23:40.022Z,4.60
2023-05-14T12:26:09.477Z,4.10
2023-05-14T12:28:43.336Z,4.60
2023-05-14T12:31:13.132Z,4.63
2023-05-14T12:33:42.904Z,4.10
2023-05-14T12:36:21.167Z,5.13
2023-05-14T12:38:50.965Z,7.00
2023-05-14T12:41:20.001Z,4.53
2023-05-14T12:43:50.277Z,5.83
2023-05-14T12:46:18.818Z,4.00
2023-05-14T12:48:49.259Z,6.20
2023-05-14T12:51:18.748Z,6.20
2023-05-14T12:53:47.529Z,8.70
2023-05-14T12:56:16.079Z,5.50
2023-05-14T12:58:44.375Z,6.47
2023-05-14T13:01:12.691Z,5.90
2023-05-14T13:03:41.142Z,6.87
2023-05-14T13:06:11.079Z,4.97
2023-05-14T13:08:40.958Z,4.57
2023-05-14T13:11:10.409Z,4.30
2023-05-14T13:13:38.673Z,3.53
2023-05-14T13:16:07.696Z,5.47
2023-05-14T13:18:37.226Z,6.60
2023-05-14T13:21:06.473Z,3.83
2023-05-14T13:23:36.129Z,3.00
2023-05-14T13:26:04.600Z,4.67
2023-05-14T13:28:32.917Z,4.60
2023-05-14T13:31:07.947Z,10.70
2023-05-14T13:33:37.936Z,5.07
2023-05-14T13:36:06.931Z,12.50
2023-05-14T13:38:36.685Z,9.13
2023-05-14T13:41:05.207Z,5.73
2023-05-14T13:43:34.827Z,4.33
2023-05-14T13:46:04.614Z,2.63
2023-05-14T13:48:33.241Z,4.50
2023-05-14T13:51:01.596Z,3.63
2023-05-14T13:53:30.540Z,2.83
2023-05-14T13:56:01.741Z,3.13
2023-05-14T13:58:30.174Z,4.47
2023-05-14T14:00:58.606Z,3.23
2023-05-14T14:03:27.004Z,3.53
2023-05-14T14:05:55.592Z,2.97
2023-05-14T14:08:24.647Z,2.70
2023-05-14T14:10:55.300Z,3.10
2023-05-14T14:13:25.287Z,3.40
2023-05-14T14:15:53.815Z,3.27
2023-05-14T14:18:22.162Z,3.60
2023-05-14T14:20:50.792Z,3.70
2023-05-14T14:23:19.693Z,3.67
2023-05-14T14:25:48.177Z,3.37
2023-05-14T14:28:16.523Z,3.10
2023-05-14T14:30:46.348Z,5.40
2023-05-14T14:33:14.918Z,5.20
2023-05-14T14:35:43.561Z,3.97
2023-05-14T14:38:12.556Z,2.70
2023-05-14T14:40:40.891Z,3.77
2023-05-14T14:43:09.418Z,3.03
2023-05-14T14:45:37.956Z,3.03
2023-05-14T14:48:28.485Z,3.77
2023-05-14T14:50:57.014Z,5.37
2023-05-14T14:53:25.878Z,3.80
2023-05-14T14:55:55.050Z,2.87
2023-05-14T14:58:23.666Z,3.03
2023-05-14T15:00:54.124Z,4.20
2023-05-14T15:03:22.936Z,4.07
2023-05-14T15:05:53.603Z,2.80
2023-05-14T15:08:26.181Z,7.27
2023-05-14T15:10:54.586Z,4.10
2023-05-14T15:13:22.994Z,3.83
2023-05-14T15:15:52.831Z,4.33
2023-05-14T15:18:21.312Z,3.90
2023-05-14T15:20:49.692Z,4.17
2023-05-14T15:23:19.915Z,4.97
2023-05-14T15:25:49.437Z,8.97
2023-05-14T15:28:17.838Z,4.33
2023-05-14T15:30:48.339Z,4.20
2023-05-14T15:33:19.117Z,4.13
2023-05-14T15:35:47.590Z,3.73
2023-05-14T15:38:15.975Z,3.70
2023-05-14T15:40:45.662Z,4.00
2023-05-14T15:43:13.964Z,4.33
2023-05-14T15:45:42.230Z,4.10
2023-05-14T15:48:10.631Z,3.40
2023-05-14T15:50:39.534Z,3.30
2023-05-14T15:53:07.882Z,6.20
2023-05-14T15:55:36.224Z,5.30
2023-05-14T15:58:06.326Z,3.60
2023-05-14T16:00:34.703Z,3.57
2023-05-14T16:03:03.133Z,2.63
2023-05-14T16:05:31.640Z,3.40
2023-05-14T16:08:00.307Z,3.30
2023-05-14T16:10:28.597Z,3.90
2023-05-14T16:12:56.930Z,7.23
2023-05-14T16:15:26.675Z,5.60
2023-05-14T16:17:55.016Z,2.80
2023-05-14T16:20:24.203Z,3.83
2023-05-14T16:22:52.730Z,4.50
2023-05-14T16:25:21.068Z,3.83
2023-05-14T16:27:49.364Z,3.87
2023-05-14T16:30:17.821Z,4.70
2023-05-14T16:32:49.574Z,3.40
2023-05-14T16:35:18.027Z,3.80
2023-05-14T16:37:46.407Z,5.60
2023-05-14T16:40:16.244Z,6.93
2023-05-14T16:42:46.053Z,3.10
2023-05-14T16:45:15.602Z,7.10
2023-05-14T16:47:43.945Z,3.03
2023-05-14T16:50:13.872Z,5.27
2023-05-14T16:52:42.303Z,4.10
2023-05-14T16:55:11.002Z,3.20
2023-05-14T16:57:43.717Z,3.40
2023-05-14T17:00:13.461Z,4.30
2023-05-14T17:02:42.019Z,3.87
2023-05-14T17:05:11.006Z,4.87
2023-05-14T17:07:41.286Z,3.97
2023-05-14T17:10:10.731Z,4.33
2023-05-14T17:12:39.108Z,4.33
2023-05-14T17:15:08.874Z,4.63
2023-05-14T17:17:37.287Z,5.30
2023-05-14T17:20:06.831Z,5.43
2023-05-14T17:22:35.572Z,3.20
2023-05-14T17:25:06.283Z,3.13
2023-05-14T17:27:34.637Z,4.03
2023-05-14T17:30:03.489Z,5.60
2023-05-14T17:32:33.992Z,4.03
2023-05-14T17:35:02.774Z,4.07
2023-05-14T17:37:33.462Z,4.60
2023-05-14T17:40:01.777Z,3.37
2023-05-14T17:42:31.555Z,6.53
2023-05-14T17:44:59.949Z,3.73
2023-05-14T17:47:28.455Z,4.47
2023-05-14T17:49:56.760Z,9.23
2023-05-14T17:52:25.088Z,3.90
2023-05-14T17:54:53.437Z,6.43
2023-05-14T17:57:22.784Z,4.20
2023-05-14T17:59:52.468Z,6.20
2023-05-14T18:02:20.833Z,5.83
2023-05-14T18:04:49.162Z,4.80
2023-05-14T18:07:18.772Z,5.83
2023-05-14T18:09:47.115Z,12.30
2023-05-14T18:12:15.537Z,7.50
2023-05-14T18:14:45.441Z,11.50
2023-05-14T18:17:15.570Z,6.37
2023-05-14T18:19:44.103Z,7.20
2023-05-14T18:22:12.375Z,4.63
2023-05-14T18:24:40.780Z,10.90
2023-05-14T18:27:09.841Z,11.80
2023-05-14T18:29:38.148Z,6.20
2023-05-14T18:32:07.320Z,8.20
2023-05-14T18:34:37.072Z,14.37
2023-05-14T18:37:05.449Z,8.93
2023-05-14T18:39:33.763Z,3.83
2023-05-14T18:42:02.282Z,6.33
2023-05-14T18:44:31.012Z,4.70
2023-05-14T18:47:00.433Z,7.43
2023-05-14T18:49:28.770Z,5.63
2023-05-14T18:51:58.434Z,5.40
2023-05-14T18:54:26.761Z,5.63
2023-05-14T18:56:55.525Z,6.07
2023-05-14T18:59:23.906Z,8.20
2023-05-14T19:01:52.402Z,4.47
2023-05-14T19:04:21.135Z,4.93
2023-05-14T19:06:49.567Z,9.93
2023-05-14T19:09:21.142Z,5.03
2023-05-14T19:11:49.797Z,5.73
2023-05-14T19:14:18.232Z,7.80
2023-05-14T19:16:46.653Z,13.03
2023-05-14T19:19:15.184Z,6.80
2023-05-14T19:21:43.640Z,5.13
2023-05-14T19:24:12.200Z,5.67
2023-05-14T19:26:42.022Z,5.63
2023-05-14T19:29:10.494Z,6.10
2023-05-14T19:31:39.154Z,4.07
2023-05-14T19:34:07.683Z,7.00
2023-05-14T19:36:36.225Z,8.13
2023-05-14T19:39:04.636Z,6.70
2023-05-14T19:41:33.012Z,6.33
2023-05-14T19:44:02.810Z,4.77
2023-05-14T19:46:31.352Z,5.30
2023-05-14T19:48:59.793Z,8.57
2023-05-14T19:51:28.215Z,7.30
2023-05-14T19:53:56.588Z,7.00
2023-05-14T19:56:27.134Z,7.63
2023-05-14T19:58:55.936Z,4.87
2023-05-14T20:01:26.813Z,6.50
2023-05-14T20:03:55.208Z,8.17
2023-05-14T20:06:23.520Z,8.10
2023-05-14T20:08:52.150Z,6.70
2023-05-14T20:11:21.583Z,10.60
2023-05-14T20:13:50.004Z,6.20
2023-05-14T20:16:18.728Z,7.07
2023-05-14T20:18:48.678Z,12.60
2023-05-14T20:21:17.066Z,7.90
2023-05-14T20:23:45.480Z,7.73
2023-05-14T20:26:13.810Z,11.00
2023-05-14T20:28:43.456Z,5.87
2023-05-14T20:31:11.830Z,5.37
2023-05-14T20:33:40.135Z,8.03
2023-05-14T20:36:09.969Z,5.20
2023-05-14T20:38:38.327Z,6.57
2023-05-14T20:41:07.022Z,10.37
2023-05-14T20:43:35.345Z,12.80
2023-05-14T20:46:05.806Z,6.50
2023-05-14T20:48:34.154Z,10.53
2023-05-14T20:51:04.883Z,10.27
2023-05-14T20:53:39.196Z,4.90
2023-05-14T20:56:07.809Z,7.13
2023-05-14T20:58:36.475Z,5.00
2023-05-14T21:01:07.907Z,6.10
2023-05-14T21:03:36.407Z,5.43
2023-05-14T21:06:05.116Z,8.67
2023-05-14T21:08:35.459Z,5.90
2023-05-14T21:11:03.809Z,6.30
2023-05-14T21:13:32.118Z,9.53
2023-05-14T21:16:00.948Z,11.13
2023-05-14T21:18:32.745Z,7.70
2023-05-14T21:21:01.218Z,8.20
2023-05-14T21:23:29.574Z,6.00
2023-05-14T21:25:59.282Z,10.30
2023-05-14T21:28:27.598Z,8.33
2023-05-14T21:30:55.916Z,8.50
2023-05-14T21:33:24.448Z,11.17
2023-05-14T21:35:52.811Z,9.07
2023-05-14T21:38:21.462Z,9.57
2023-05-14T21:40:49.832Z,7.10
2023-05-14T21:43:19.531Z,9.13
2023-05-14T21:45:48.032Z,9.83
2023-05-14T21:48:16.474Z,9.27
2023-05-14T21:50:44.861Z,9.43
2023-05-14T21:53:13.323Z,8.40
2023-05-14T21:55:41.766Z,12.60
2023-05-14T21:58:10.131Z,11.03
2023-05-14T22:00:39.849Z,10.00
2023-05-14T22:03:08.311Z,8.20
2023-05-14T22:05:36.724Z,12.03
2023-05-14T22:08:05.807Z,9.50
2023-05-14T22:10:35.418Z,6.30
2023-05-14T22:13:03.717Z,5.90
2023-05-14T22:15:32.181Z,8.50
2023-05-14T22:18:03.119Z,6.47
2023-05-14T22:20:31.457Z,7.00
2023-05-14T22:22:59.791Z,7.10
2023-05-14T22:25:28.225Z,6.70
2023-05-14T22:27:56.575Z,5.50
2023-05-14T22:30:24.998Z,6.80
2023-05-14T22:32:53.571Z,4.57
2023-05-14T22:35:23.340Z,5.30
2023-05-14T22:37:51.785Z,7.03
2023-05-14T22:40:20.307Z,15.83
2023-05-14T22:42:48.582Z,7.33
2023-05-14T22:45:16.954Z,9.50
2023-05-14T22:47:45.225Z,6.53
2023-05-14T22:50:13.532Z,9.47
2023-05-14T22:52:43.185Z,3.93
2023-05-14T22:55:11.710Z,4.10
2023-05-14T22:57:40.350Z,5.47
2023-05-14T23:00:10.040Z,5.80
2023-05-14T23:02:39.393Z,5.67
2023-05-14T23:05:09.122Z,8.03
2023-05-14T23:07:37.626Z,4.97
2023-05-14T23:10:08.255Z,6.37
2023-05-14T23:12:36.596Z,4.20
2023-05-14T23:15:05.354Z,5.63
2023-05-14T23:17:33.884Z,7.50
2023-05-14T23:20:02.278Z,4.73
2023-05-14T23:22:30.605Z,10.90
2023-05-14T23:24:58.866Z,7.80
2023-05-14T23:27:29.056Z,5.87
2023-05-14T23:29:57.448Z,5.53
2023-05-14T23:32:25.917Z,3.10
2023-05-14T23:34:54.350Z,5.33
2023-05-14T23:37:22.732Z,5.70
2023-05-14T23:39:51.442Z,3.20
2023-05-14T23:42:20.176Z,5.07
2023-05-14T23:44:50.282Z,3.10
2023-05-14T23:47:18.930Z,6.07
2023-05-14T23:49:47.350Z,6.13
2023-05-14T23:52:15.878Z,6.80
2023-05-14T23:54:44.223Z,6.60
2023-05-14T23:57:14.532Z,3.50
2023-05-14T23:59:42.978Z,4.47
